Time;durP1;ratioP1;P1;durP2;ratioP2;P2;SDS_P1;SDS_P2;PMS_P1;PMS_P2;Temp;Humidity;BMP_temperature;BMP_pressure;BME280_temperature;BME280_humidity;BME280_pressure;Samples;Min_cycle;Max_cycle;Signal;HPM_P1;HPM_P2
2022/03/11 00:02:06;;;;;;;31.50;11.30;;;;;;;-0.49;54.79;102704.52;5123553;56;1140933;-69
2022/03/11 00:07:12;;;;;;;29.05;11.57;;;;;;;-0.52;54.91;102704.50;5173821;55;1141006;-68
2022/03/11 00:12:18;;;;;;;29.87;12.10;;;;;;;-0.56;54.96;102707.95;5173988;56;1141301;-69
2022/03/11 00:17:25;;;;;;;29.67;11.87;;;;;;;-0.64;55.21;102705.34;5174535;56;1140938;-69
2022/03/11 00:22:30;;;;;;;33.60;10.63;;;;;;;-0.66;55.39;102716.15;5173729;55;1141180;-68
2022/03/11 00:27:36;;;;;;;30.08;11.75;;;;;;;-0.75;55.71;102713.06;5107861;56;1141021;-70
2022/03/11 00:32:42;;;;;;;33.56;13.50;;;;;;;-0.76;55.69;102710.03;5086740;57;1150597;-69
2022/03/11 00:37:49;;;;;;;27.70;11.73;;;;;;;-0.77;55.85;102708.33;5075101;56;1141017;-69
2022/03/11 00:42:54;;;;;;;28.60;12.03;;;;;;;-0.77;55.87;102705.73;5038212;57;1140807;-70
2022/03/11 00:48:00;;;;;;;34.57;12.67;;;;;;;-0.82;56.02;102707.42;5042835;56;1140863;-70
2022/03/11 00:53:06;;;;;;;44.95;13.43;;;;;;;-0.84;56.34;102705.25;5041605;56;1140890;-70
2022/03/11 00:58:14;;;;;;;28.17;13.40;;;;;;;-0.85;56.22;102701.34;5137947;55;1184011;-71
2022/03/11 01:03:21;;;;;;;34.47;13.47;;;;;;;-0.88;56.50;102700.89;5186455;55;1256676;-70
2022/03/11 01:08:26;;;;;;;38.83;15.47;;;;;;;-0.93;56.77;102701.32;5043680;57;1141427;-70
2022/03/11 01:13:32;;;;;;;31.43;13.70;;;;;;;-0.99;56.89;102701.28;5043663;57;1141487;-69
2022/03/11 01:18:39;;;;;;;29.23;13.60;;;;;;;-0.99;56.82;102697.38;5043795;57;1140942;-70
2022/03/11 01:23:45;;;;;;;38.40;14.80;;;;;;;-0.99;56.89;102693.92;5043869;57;1140920;-70
2022/03/11 01:28:52;;;;;;;31.70;13.27;;;;;;;-0.98;57.12;102693.92;5043621;57;1140884;-69
2022/03/11 01:33:57;;;;;;;40.73;15.50;;;;;;;-0.99;57.07;102695.22;5043748;56;1140859;-70
2022/03/11 01:39:03;;;;;;;31.37;12.67;;;;;;;-1.03;57.27;102693.45;5043564;56;1140917;-70
2022/03/11 01:44:11;;;;;;;43.90;16.03;;;;;;;-1.10;57.27;102693.44;5043614;56;1140951;-70
2022/03/11 01:49:17;;;;;;;36.63;14.23;;;;;;;-1.16;57.49;102689.50;4979194;57;1141027;-69
2022/03/11 01:54:24;;;;;;;36.23;12.60;;;;;;;-1.16;57.68;102683.44;5110701;56;1141025;-71
2022/03/11 01:59:30;;;;;;;38.07;13.87;;;;;;;-1.17;57.75;102683.87;5111123;56;1141193;-70
2022/03/11 02:04:36;;;;;;;34.17;14.63;;;;;;;-1.22;57.81;102682.97;5111183;56;1140941;-69
2022/03/11 02:09:42;;;;;;;36.93;13.20;;;;;;;-1.21;57.98;102673.45;5111107;55;1147766;-69
2022/03/11 02:14:47;;;;;;;33.98;13.72;;;;;;;-1.24;58.13;102690.34;5111133;56;1141016;-69
2022/03/11 02:19:53;;;;;;;40.20;13.93;;;;;;;-1.28;58.27;102693.77;5110888;55;1141159;-70
2022/03/11 02:24:59;;;;;;;36.90;14.37;;;;;;;-1.30;58.28;102697.64;5110671;56;1140964;-69
2022/03/11 02:30:14;;;;;;;33.30;14.47;;;;;;;-1.31;58.27;102697.20;5110817;55;1140961;-70
2022/03/11 02:35:20;;;;;;;31.60;12.60;;;;;;;-1.31;58.26;102698.50;5110879;55;1140828;-70
2022/03/11 02:40:27;;;;;;;33.67;13.57;;;;;;;-1.31;58.19;102701.53;5110561;56;1141240;-70
2022/03/11 02:45:33;;;;;;;36.10;14.17;;;;;;;-1.31;58.09;102702.83;5110793;56;1141008;-70
2022/03/11 02:50:39;;;;;;;42.78;14.80;;;;;;;-1.30;57.98;102698.94;5218973;55;1140852;-72
2022/03/11 02:55:45;;;;;;;33.43;13.60;;;;;;;-1.31;57.89;102701.53;5221697;54;1141043;-70
2022/03/11 03:00:51;;;;;;;33.85;12.45;;;;;;;-1.34;57.83;102707.56;5193125;55;1141325;-71
2022/03/11 03:05:56;;;;;;;39.25;13.65;;;;;;;-1.37;57.80;102706.23;5193243;55;1140847;-69
2022/03/11 03:11:03;;;;;;;27.03;12.37;;;;;;;-1.43;57.79;102704.48;5192760;55;1141275;-69
2022/03/11 03:16:08;;;;;;;29.23;13.13;;;;;;;-1.49;57.76;102707.45;5192648;55;1141088;-69
2022/03/11 03:21:14;;;;;;;34.93;13.00;;;;;;;-1.55;57.78;102706.14;5192925;55;1140855;-69
2022/03/11 03:26:21;;;;;;;34.95;12.93;;;;;;;-1.61;57.86;102700.89;5192709;56;1141092;-69
2022/03/11 03:31:27;;;;;;;33.13;12.93;;;;;;;-1.68;57.94;102697.37;5189297;55;1140906;-69
2022/03/11 03:36:33;;;;;;;31.20;11.73;;;;;;;-1.71;58.02;102699.09;5192824;56;1141058;-69
2022/03/11 03:41:40;;;;;;;25.94;11.12;;;;;;;-1.77;58.14;102702.06;5212336;55;1140779;-69
2022/03/11 03:46:45;;;;;;;35.00;12.13;;;;;;;-1.84;58.39;102702.89;5138344;55;1150897;-70
2022/03/11 03:51:51;;;;;;;40.92;12.63;;;;;;;-1.96;58.50;102696.28;5072589;56;1140825;-70
2022/03/11 03:56:57;;;;;;;32.33;12.40;;;;;;;-2.02;58.90;102697.54;5055892;56;1140953;-70
2022/03/11 04:02:03;;;;;;;30.50;12.23;;;;;;;-2.04;58.98;102707.02;5074782;56;1140765;-70
2022/03/11 04:07:09;;;;;;;28.13;12.33;;;;;;;-2.05;59.08;102709.17;5079316;56;1141015;-70
2022/03/11 04:12:14;;;;;;;33.63;13.50;;;;;;;-2.04;59.16;102704.86;5089382;57;1140967;-70
2022/03/11 04:17:20;;;;;;;27.67;11.03;;;;;;;-2.08;59.38;102710.43;5053365;56;1140908;-70
2022/03/11 04:22:25;;;;;;;29.90;12.03;;;;;;;-2.10;59.13;102705.66;5067657;56;1140729;-69
2022/03/11 04:27:31;;;;;;;33.80;12.33;;;;;;;-2.12;59.33;102709.53;5080532;56;1140932;-69
2022/03/11 04:32:39;;;;;;;38.73;12.47;;;;;;;-2.15;59.35;102709.95;5088867;56;1140740;-69
2022/03/11 04:37:44;;;;;;;33.03;12.43;;;;;;;-2.18;59.26;102712.50;5072427;56;1140853;-69
2022/03/11 04:42:50;;;;;;;29.70;12.28;;;;;;;-2.24;59.43;102709.84;5072227;56;1140950;-68
2022/03/11 04:47:56;;;;;;;27.60;11.30;;;;;;;-2.31;59.41;102708.05;5111683;56;1140770;-70
2022/03/11 04:53:03;;;;;;;31.90;12.13;;;;;;;-2.36;59.64;102705.83;5033832;56;1140814;-70
2022/03/11 04:58:08;;;;;;;39.67;12.50;;;;;;;-2.41;59.83;102703.19;5068343;56;1140814;-69
2022/03/11 05:03:14;;;;;;;32.07;11.63;;;;;;;-2.42;59.97;102694.09;5135882;55;1140788;-70
2022/03/11 05:08:21;;;;;;;31.10;12.30;;;;;;;-2.52;60.66;102702.20;5131370;56;1140879;-69
2022/03/11 05:13:28;;;;;;;28.35;12.03;;;;;;;-2.56;60.61;102712.08;5147247;56;1140889;-69
2022/03/11 05:18:34;;;;;;;36.75;15.63;;;;;;;-2.61;60.47;102719.82;5132853;55;1141151;-70
2022/03/11 05:23:42;;;;;;;47.54;20.30;;;;;;;-2.66;60.85;102716.30;5229391;55;1140942;-70
2022/03/11 05:28:48;;;;;;;46.23;17.87;;;;;;;-2.66;60.95;102719.31;5202723;55;1140941;-69
2022/03/11 05:33:54;;;;;;;56.40;20.83;;;;;;;-2.65;61.12;102714.16;5197802;55;1140922;-70
2022/03/11 05:39:00;;;;;;;46.30;17.63;;;;;;;-2.67;61.33;102722.33;5139415;55;1141514;-69
2022/03/11 05:44:06;;;;;;;38.77;14.20;;;;;;;-2.67;61.18;102721.45;5126251;56;1140969;-69
2022/03/11 05:49:13;;;;;;;35.33;13.37;;;;;;;-2.66;61.42;102727.95;5083164;56;1140876;-69
2022/03/11 05:54:19;;;;;;;41.53;14.33;;;;;;;-2.65;61.80;102728.83;5187767;55;1141117;-69
2022/03/11 05:59:26;;;;;;;33.97;13.37;;;;;;;-2.53;61.46;102731.55;5224295;55;1141239;-70
2022/03/11 06:04:32;;;;;;;28.60;11.57;;;;;;;-2.39;61.33;102734.30;5216923;55;1141079;-69
2022/03/11 06:09:38;;;;;;;33.08;12.07;;;;;;;-2.26;60.87;102739.63;5211801;55;1141163;-70
2022/03/11 06:14:44;;;;;;;36.13;13.17;;;;;;;-2.13;60.56;102735.43;5123285;55;1140985;-70
2022/03/11 06:19:50;;;;;;;31.97;12.70;;;;;;;-1.99;60.38;102735.59;5140012;56;1141047;-69
2022/03/11 06:25:00;;;;;;;27.50;10.55;;;;;;;-1.85;59.80;102723.20;5139430;55;1141114;-70
2022/03/11 06:30:05;;;;;;;30.23;13.93;;;;;;;-1.73;59.47;102732.80;5139831;56;1140860;-70
2022/03/11 06:35:13;;;;;;;37.70;13.87;;;;;;;-1.55;59.25;102732.95;5139690;55;1141062;-68
2022/03/11 06:40:20;;;;;;;126.40;46.77;;;;;;;-1.37;58.00;102733.48;5157491;55;1140805;-70
2022/03/11 06:45:26;;;;;;;48.90;19.15;;;;;;;-1.15;57.76;102735.81;5211912;55;1142860;-70
2022/03/11 06:50:32;;;;;;;291.77;144.07;;;;;;;-0.93;56.87;102735.52;5205143;55;1140867;-70
2022/03/11 06:55:37;;;;;;;147.47;56.37;;;;;;;-0.77;57.01;102739.50;5040194;57;1145206;-71
2022/03/11 07:00:44;;;;;;;501.37;224.80;;;;;;;-0.57;55.65;102747.78;5130160;56;1143041;-73
2022/03/11 07:05:49;;;;;;;33.43;13.33;;;;;;;-0.30;55.87;102747.00;5055498;56;1154907;-70
2022/03/11 07:10:58;;;;;;;23.93;9.67;;;;;;;0.00;50.64;102745.80;5056477;56;1140952;-72
2022/03/11 07:16:05;;;;;;;27.73;12.10;;;;;;;0.00;50.64;102745.80;5077058;56;1136733;-70
2022/03/11 07:21:11;;;;;;;21.53;9.10;;;;;;;0.18;52.10;102732.79;5043569;56;1138844;-71
2022/03/11 07:26:17;;;;;;;24.53;9.13;;;;;;;0.38;50.16;102730.64;5117738;56;1136798;-71
2022/03/11 07:31:23;;;;;;;21.20;8.67;;;;;;;0.44;48.77;102731.52;5114227;56;1137118;-70
2022/03/11 07:36:30;;;;;;;21.73;8.70;;;;;;;0.52;47.15;102732.36;5117647;56;1136814;-70
2022/03/11 07:41:38;;;;;;;17.33;8.57;;;;;;;0.68;47.83;102728.88;5117939;56;1137121;-71
2022/03/11 07:46:46;;;;;;;27.27;9.10;;;;;;;0.87;45.97;102722.34;5093889;56;1136983;-72
2022/03/11 07:51:51;;;;;;;16.42;7.70;;;;;;;0.96;46.79;102721.86;5117899;56;1136719;-69
2022/03/11 07:56:57;;;;;;;23.60;10.58;;;;;;;1.12;45.56;102712.70;5116866;56;1136818;-69
2022/03/11 08:02:04;;;;;;;27.07;8.07;;;;;;;1.28;44.60;102719.59;5106174;56;1139003;-68
2022/03/11 08:07:11;;;;;;;18.50;7.50;;;;;;;1.28;43.26;102724.80;5102155;55;1136765;-69
2022/03/11 08:12:17;;;;;;;24.40;9.33;;;;;;;1.58;45.02;102723.36;5032902;56;1136822;-69
2022/03/11 08:17:23;;;;;;;18.80;8.37;;;;;;;1.71;43.85;102722.41;5053157;56;1136794;-69
2022/03/11 08:22:30;;;;;;;17.17;8.77;;;;;;;1.90;41.61;102710.12;5057807;56;1136930;-69
2022/03/11 08:27:36;;;;;;;22.73;6.97;;;;;;;2.15;44.12;102711.24;5057606;56;1136818;-69
2022/03/11 08:32:43;;;;;;;16.30;7.17;;;;;;;2.47;40.74;102705.31;5057627;56;1136572;-69
2022/03/11 08:37:49;;;;;;;14.27;6.40;;;;;;;2.60;42.02;102709.54;5057914;56;1136651;-69
2022/03/11 08:42:55;;;;;;;15.73;6.07;;;;;;;2.72;39.75;102709.89;5057722;56;1136589;-69
2022/03/11 08:48:02;;;;;;;23.57;8.00;;;;;;;2.49;38.91;102691.80;5128239;55;1136632;-71
2022/03/11 08:53:08;;;;;;;17.40;7.53;;;;;;;2.59;39.33;102709.59;5199082;55;1137142;-69
2022/03/11 08:58:14;;;;;;;22.37;7.73;;;;;;;2.65;39.07;102717.34;5127291;55;1136797;-69
2022/03/11 09:03:20;;;;;;;19.27;7.53;;;;;;;2.76;38.16;102711.56;5149768;55;1136879;-69
2022/03/11 09:08:26;;;;;;;16.37;5.93;;;;;;;2.82;38.24;102713.69;5208516;55;1136659;-71
2022/03/11 09:13:32;;;;;;;19.33;6.27;;;;;;;2.90;37.19;102714.06;5211997;55;1136667;-70
2022/03/11 09:18:37;;;;;;;14.83;5.87;;;;;;;2.91;36.86;102712.70;5043314;56;1136569;-70
2022/03/11 09:23:43;;;;;;;15.77;7.70;;;;;;;2.85;36.62;102704.95;5043173;57;1136712;-70
2022/03/11 09:28:51;;;;;;;18.93;6.10;;;;;;;2.83;36.98;102698.88;5043357;57;1136769;-69
2022/03/11 09:33:57;;;;;;;15.55;7.22;;;;;;;2.92;36.74;102697.45;5043353;57;1136723;-70
2022/03/11 09:39:02;;;;;;;10.50;4.33;;;;;;;3.06;36.46;102694.67;5043431;56;1136637;-71
2022/03/11 09:44:11;;;;;;;18.73;8.13;;;;;;;3.26;34.85;102684.85;5172839;55;1136753;-69
2022/03/11 09:49:18;;;;;;;11.43;5.77;;;;;;;3.20;35.30;102686.26;5166699;55;1136812;-69
2022/03/11 09:54:25;;;;;;;31.37;9.35;;;;;;;3.36;34.70;102687.77;5158783;55;1137173;-72
2022/03/11 09:59:30;;;;;;;27.67;6.23;;;;;;;3.40;34.54;102680.30;5196395;55;1136799;-70
2022/03/11 10:04:36;;;;;;;35.20;7.53;;;;;;;3.47;34.11;102685.02;5180714;55;1136880;-70
2022/03/11 10:09:42;;;;;;;13.30;5.23;;;;;;;3.63;34.99;102689.16;5150981;55;1136823;-71
2022/03/11 10:14:58;;;;;;;18.37;5.42;;;;;;;3.61;32.96;102672.62;5144945;55;1136725;-71
2022/03/11 10:20:10;;;;;;;14.30;7.07;;;;;;;3.49;33.49;102702.44;5025826;56;1136758;-69
2022/03/11 10:25:25;;;;;;;14.73;7.10;;;;;;;3.63;35.02;102690.91;5030266;57;1136782;-71
2022/03/11 10:30:35;;;;;;;9.00;5.37;;;;;;;3.84;35.19;102690.14;5013860;57;1136949;-71
2022/03/11 10:35:47;;;;;;;22.90;6.57;;;;;;;4.08;33.66;102690.22;5040831;56;1134632;-71
2022/03/11 10:40:55;;;;;;;17.43;6.70;;;;;;;4.12;32.69;102689.73;5032024;56;1136866;-70
2022/03/11 10:46:09;;;;;;;12.85;6.70;;;;;;;4.11;32.11;102683.63;5042064;56;1137138;-70
2022/03/11 10:51:31;;;;;;;12.33;6.75;;;;;;;4.14;30.95;102670.46;5030849;57;1136953;-70
2022/03/11 10:56:43;;;;;;;17.20;5.83;;;;;;;4.24;32.59;102681.67;5082520;55;1136769;-71
2022/03/11 11:01:54;;;;;;;13.13;5.50;;;;;;;4.36;32.50;102668.80;5210519;55;1136799;-70
2022/03/11 11:06:59;;;;;;;13.63;5.60;;;;;;;4.38;32.04;102665.27;5201084;55;1147554;-70
2022/03/11 11:12:06;;;;;;;15.53;6.67;;;;;;;4.37;30.47;102660.92;5127716;55;1136866;-70
2022/03/11 11:17:14;;;;;;;25.53;8.83;;;;;;;4.30;31.40;102661.03;5145143;55;1137028;-70
2022/03/11 11:22:22;;;;;;;18.73;9.75;;;;;;;4.57;31.69;102649.64;5106479;56;1136791;-71
2022/03/11 11:27:31;;;;;;;17.00;6.07;;;;;;;4.63;30.71;102644.71;5106215;56;1136998;-69
2022/03/11 11:32:38;;;;;;;16.67;7.17;;;;;;;4.66;30.51;102636.80;5106683;56;1136743;-70
2022/03/11 11:37:43;;;;;;;12.13;5.07;;;;;;;4.79;29.47;102645.28;5135698;56;1136621;-70
2022/03/11 11:43:29;;;;;;;16.32;8.18;;;;;;;4.86;30.04;102632.03;5106963;56;1137007;-71
2022/03/11 11:48:48;;;;;;;9.87;5.07;;;;;;;5.07;30.61;102612.35;5105649;56;1136658;-70
2022/03/11 11:54:12;;;;;;;15.23;6.83;;;;;;;5.28;29.05;102609.72;5123230;55;1134711;-69
2022/03/11 11:59:20;;;;;;;9.60;5.00;;;;;;;5.28;28.60;102613.66;5135081;56;1136700;-70
2022/03/11 12:04:37;;;;;;;11.10;5.20;;;;;;;5.24;27.42;102602.36;5118151;56;1134704;-69
2022/03/11 12:10:00;;;;;;;8.50;4.87;;;;;;;5.30;28.55;102606.17;5107123;56;1136860;-69
2022/03/11 12:15:05;;;;;;;12.77;6.80;;;;;;;5.52;30.77;102602.59;5121766;56;1134622;-69
2022/03/11 12:20:37;;;;;;;9.45;4.53;;;;;;;5.69;29.73;102587.75;5127286;56;1136934;-71
2022/03/11 12:25:56;;;;;;;11.17;4.80;;;;;;;5.85;29.72;102590.42;5141237;56;1134845;-70
2022/03/11 12:31:09;;;;;;;69.90;36.23;;;;;;;5.91;28.22;102594.70;5115888;55;1136771;-70
2022/03/11 12:36:19;;;;;;;14.40;5.27;;;;;;;5.97;28.95;102582.70;5127046;55;1138902;-70
2022/03/11 12:41:28;;;;;;;9.00;5.22;;;;;;;6.03;27.94;102581.70;5111654;56;1136751;-70
2022/03/11 12:46:34;;;;;;;15.60;6.53;;;;;;;5.98;28.22;102572.61;5126258;55;1134859;-70
2022/03/11 12:51:39;;;;;;;14.47;5.50;;;;;;;5.99;28.71;102568.64;5105971;55;1136924;-70
2022/03/11 12:56:45;;;;;;;11.37;5.13;;;;;;;6.09;27.98;102566.66;5106636;56;1137184;-70
2022/03/11 13:01:52;;;;;;;15.45;7.42;;;;;;;6.06;28.92;102543.09;5097999;56;1137379;-70
2022/03/11 13:07:04;;;;;;;12.68;6.70;;;;;;;6.18;28.54;102544.06;4838473;58;1136979;-69
2022/03/11 13:17:27;;;;;;;21.13;6.90;;;;;;;6.23;28.12;102529.50;5176753;55;46701;-68
2022/03/11 13:22:33;;;;;;;10.67;5.23;;;;;;;6.23;28.92;102526.88;5031902;56;1132495;-69
2022/03/11 13:27:42;;;;;;;22.00;6.87;;;;;;;6.23;28.19;102521.62;5016991;57;1136752;-69
2022/03/11 13:32:47;;;;;;;13.73;5.27;;;;;;;6.36;28.66;102516.42;5024891;57;1136844;-69
2022/03/11 13:37:53;;;;;;;16.53;6.50;;;;;;;6.42;27.09;102517.55;5021250;56;1140488;-69
2022/03/11 13:43:03;;;;;;;8.93;4.55;;;;;;;6.45;27.80;102508.27;4946964;57;1136745;-69
2022/03/11 13:48:11;;;;;;;16.27;5.67;;;;;;;6.48;26.20;102512.58;5006130;57;1134723;-69
2022/03/11 13:53:24;;;;;;;13.50;6.27;;;;;;;6.44;26.99;102506.54;5005350;57;1136767;-68
2022/03/11 13:58:32;;;;;;;21.77;8.63;;;;;;;6.41;27.13;102497.91;4920874;58;1136813;-69
2022/03/11 14:03:47;;;;;;;12.90;5.17;;;;;;;6.40;27.02;102497.05;4856320;58;1136836;-68
2022/03/11 14:08:53;;;;;;;93.20;20.40;;;;;;;6.45;25.67;102485.92;4895770;58;1136900;-70
2022/03/11 14:13:59;;;;;;;11.40;6.17;;;;;;;6.37;26.50;102497.58;4957933;57;1138650;-69
2022/03/11 14:19:04;;;;;;;10.57;5.87;;;;;;;6.46;26.87;102493.36;5039080;56;1136825;-68
2022/03/11 14:24:11;;;;;;;31.60;15.80;;;;;;;6.42;26.57;102479.89;5036849;56;1136626;-69
2022/03/11 14:29:17;;;;;;;16.70;8.50;;;;;;;6.47;27.64;102476.23;5034667;56;1138854;-69
2022/03/11 14:34:24;;;;;;;11.70;7.07;;;;;;;6.45;26.99;102472.78;5035345;56;1136722;-68
2022/03/11 14:39:30;;;;;;;15.90;6.70;;;;;;;6.47;27.15;102467.03;5034837;56;1136848;-69
2022/03/11 14:44:36;;;;;;;13.67;5.97;;;;;;;6.44;26.83;102463.17;5010787;56;1136789;-69
2022/03/11 14:49:47;;;;;;;33.63;11.60;;;;;;;6.40;26.20;102451.51;5050021;56;1136715;-70
2022/03/11 14:54:52;;;;;;;31.07;9.87;;;;;;;6.29;26.74;102445.23;5045313;56;1158488;-72
2022/03/11 14:59:58;;;;;;;304.95;137.50;;;;;;;6.27;26.85;102437.38;5047538;56;1136611;-71
2022/03/11 15:05:04;;;;;;;25.27;12.43;;;;;;;6.23;27.05;102434.46;5046355;56;1142863;-71
2022/03/11 15:10:11;;;;;;;19.25;8.28;;;;;;;6.16;26.24;102430.72;5023134;56;1138930;-71
2022/03/11 15:15:16;;;;;;;21.63;8.93;;;;;;;6.07;27.44;102421.36;5039466;56;1136706;-71
2022/03/11 15:20:23;;;;;;;13.57;7.80;;;;;;;6.04;27.61;102418.81;5034727;56;1136583;-71
2022/03/11 15:25:29;;;;;;;13.33;6.87;;;;;;;6.03;26.94;102407.89;5034993;56;1136754;-70
2022/03/11 15:30:34;;;;;;;31.00;13.57;;;;;;;6.02;27.42;102398.73;5034493;56;1137076;-70
2022/03/11 15:35:42;;;;;;;33.00;12.27;;;;;;;6.05;28.48;102399.97;5052641;56;1138900;-70
2022/03/11 15:40:48;;;;;;;16.77;8.70;;;;;;;6.11;28.58;102395.38;5051885;56;1139153;-71
2022/03/11 15:45:57;;;;;;;31.83;9.43;;;;;;;6.07;28.25;102384.58;5050190;56;1137130;-72
2022/03/11 15:51:01;;;;;;;25.30;11.07;;;;;;;5.99;28.56;102378.22;5022940;56;1136865;-72
2022/03/11 15:56:07;;;;;;;21.90;9.95;;;;;;;6.01;28.50;102387.38;5013373;57;1139266;-72
2022/03/11 16:01:13;;;;;;;28.57;11.77;;;;;;;6.20;28.67;102388.56;4946224;57;1136752;-72
2022/03/11 16:06:18;;;;;;;28.43;12.00;;;;;;;7.43;27.84;102391.61;4820790;58;1139305;-71
2022/03/11 16:11:24;;;;;;;87.60;33.87;;;;;;;8.62;27.17;102382.78;4971861;56;1139494;-71
2022/03/11 16:16:30;;;;;;;38.93;18.17;;;;;;;9.25;25.64;102377.57;4954828;56;1139290;-71
2022/03/11 16:21:40;;;;;;;41.07;17.23;;;;;;;9.11;25.78;102384.75;5017996;56;1139034;-71
2022/03/11 16:26:44;;;;;;;29.83;11.60;;;;;;;8.04;25.76;102380.19;4994598;56;1139024;-70
2022/03/11 16:31:49;;;;;;;32.17;12.73;;;;;;;7.17;27.18;102381.98;5034036;55;1138857;-71
2022/03/11 16:36:55;;;;;;;36.47;13.97;;;;;;;6.51;28.20;102380.61;5053495;55;1138825;-72
2022/03/11 16:42:01;;;;;;;43.97;19.80;;;;;;;6.09;29.37;102380.60;5048641;56;1139198;-71
2022/03/11 16:47:09;;;;;;;46.68;19.95;;;;;;;5.79;30.16;102381.86;5043824;56;1138983;-69
2022/03/11 16:52:15;;;;;;;48.83;17.50;;;;;;;5.57;31.00;102387.27;5058623;56;1139095;-71
2022/03/11 16:57:21;;;;;;;59.13;26.30;;;;;;;5.33;31.55;102387.48;5062177;56;1139080;-70
2022/03/11 17:02:27;;;;;;;44.95;20.52;;;;;;;5.18;32.25;102391.36;5060279;55;1138876;-71
2022/03/11 17:07:33;;;;;;;87.83;20.63;;;;;;;5.08;32.97;102393.78;5056912;55;1138978;-71
2022/03/11 17:12:39;;;;;;;61.63;23.20;;;;;;;4.97;33.49;102401.50;5062180;55;1138866;-71
2022/03/11 17:17:46;;;;;;;83.30;35.10;;;;;;;4.87;33.91;102403.05;5062036;56;1138820;-71
2022/03/11 17:22:52;;;;;;;61.77;22.33;;;;;;;4.75;34.18;102396.77;5055927;55;1138986;-71
2022/03/11 17:28:00;;;;;;;49.60;14.73;;;;;;;4.59;34.54;102392.77;5052789;56;1138762;-71
2022/03/11 17:33:05;;;;;;;48.10;15.23;;;;;;;4.50;34.68;102400.41;5052765;56;1138869;-71
2022/03/11 17:38:16;;;;;;;41.70;19.57;;;;;;;4.33;34.46;102406.45;5052062;57;1138824;-71
2022/03/11 17:43:22;;;;;;;78.73;37.87;;;;;;;4.20;34.65;102403.24;5041993;56;1138862;-71
2022/03/11 17:48:28;;;;;;;59.00;24.33;;;;;;;4.12;35.06;102407.80;4964695;56;1139077;-71
2022/03/11 17:53:35;;;;;;;65.63;25.60;;;;;;;4.06;35.29;102400.50;4856172;59;1138768;-71
2022/03/11 17:58:42;;;;;;;61.27;23.30;;;;;;;3.96;35.62;102398.52;4856270;58;1139341;-71
2022/03/11 18:03:48;;;;;;;57.00;21.13;;;;;;;3.84;35.98;102397.44;4856680;58;1138901;-71
2022/03/11 18:08:58;;;;;;;62.37;24.80;;;;;;;3.67;36.56;102400.38;4856657;58;1138929;-72
2022/03/11 18:14:02;;;;;;;52.83;20.45;;;;;;;3.61;36.91;102403.57;4856707;58;1139210;-71
2022/03/11 18:19:09;;;;;;;43.63;17.85;;;;;;;3.52;37.18;102401.52;5060866;56;1138997;-71
2022/03/11 18:24:15;;;;;;;62.60;18.57;;;;;;;3.41;37.42;102398.70;5029941;56;1138937;-71
2022/03/11 18:29:21;;;;;;;53.70;21.97;;;;;;;3.29;37.59;102398.91;5029919;55;1138881;-72
2022/03/11 18:34:27;;;;;;;39.93;15.03;;;;;;;3.19;37.83;102395.61;5029993;56;1138813;-71
2022/03/11 18:39:35;;;;;;;45.63;18.60;;;;;;;3.08;37.71;102390.54;5029929;56;1138717;-72
2022/03/11 18:44:41;;;;;;;43.00;14.63;;;;;;;2.99;38.05;102393.31;5029800;56;1138715;-72
2022/03/11 18:49:47;;;;;;;102.07;30.03;;;;;;;2.90;38.18;102398.70;5006069;56;1138873;-71
2022/03/11 18:54:52;;;;;;;79.23;26.07;;;;;;;2.81;38.25;102398.83;5029516;57;1140815;-71
2022/03/11 18:59:58;;;;;;;82.83;27.47;;;;;;;2.73;38.38;102394.18;5010436;56;1138821;-71
2022/03/11 19:05:05;;;;;;;52.38;16.30;;;;;;;2.62;38.50;102391.70;4976359;57;1138761;-71
2022/03/11 19:10:11;;;;;;;53.95;22.05;;;;;;;2.55;38.62;102388.78;5008709;57;1138696;-70
2022/03/11 19:15:17;;;;;;;46.57;20.33;;;;;;;2.48;38.79;102388.43;4959545;57;1138665;-69
2022/03/11 19:20:25;;;;;;;62.53;22.97;;;;;;;2.39;38.89;102384.22;4945440;57;1138740;-70
2022/03/11 19:25:31;;;;;;;52.93;22.77;;;;;;;2.28;39.21;102376.12;4998481;56;1138711;-69
2022/03/11 19:30:36;;;;;;;54.23;22.67;;;;;;;2.22;39.60;102375.75;5077016;56;1138804;-69
2022/03/11 19:35:43;;;;;;;46.10;16.63;;;;;;;2.18;39.82;102381.02;5101867;56;1138666;-71
2022/03/11 19:40:56;;;;;;;42.10;16.57;;;;;;;2.11;40.12;102381.12;5120550;55;1138699;-70
2022/03/11 19:46:03;;;;;;;54.40;19.67;;;;;;;2.04;40.28;102385.11;5125944;55;1138745;-70
2022/03/11 19:51:09;;;;;;;52.33;19.87;;;;;;;1.95;40.56;102373.50;5131800;56;1138767;-70
2022/03/11 19:56:16;;;;;;;44.20;17.17;;;;;;;1.90;40.93;102377.90;5127444;56;1138739;-70
2022/03/11 20:01:21;;;;;;;49.37;16.20;;;;;;;1.82;41.06;102373.23;5130661;55;1138758;-69
2022/03/11 20:06:27;;;;;;;50.70;18.77;;;;;;;1.75;41.44;102378.95;5128336;56;1138764;-73
2022/03/11 20:11:39;;;;;;;57.53;21.25;;;;;;;1.71;41.56;102383.77;5112317;55;1139204;-73
2022/03/11 20:16:45;;;;;;;55.48;21.68;;;;;;;1.71;41.81;102382.02;5058437;56;1138926;-69
2022/03/11 20:21:57;;;;;;;51.73;22.30;;;;;;;1.66;41.90;102380.36;5092865;56;1138858;-70
2022/03/11 20:27:04;;;;;;;53.80;17.83;;;;;;;1.59;42.26;102374.77;5094625;56;1138883;-70
2022/03/11 20:32:10;;;;;;;44.55;17.15;;;;;;;1.54;42.37;102367.43;5081153;56;1138706;-69
2022/03/11 20:37:17;;;;;;;39.20;13.57;;;;;;;1.51;42.55;102370.96;5076985;56;1139181;-71
2022/03/11 20:42:23;;;;;;;40.50;15.47;;;;;;;1.48;42.73;102360.56;5088328;56;1139196;-69
2022/03/11 20:47:28;;;;;;;43.37;14.70;;;;;;;1.39;43.12;102361.50;5105182;56;1138940;-69
2022/03/11 20:52:36;;;;;;;36.93;14.50;;;;;;;1.30;43.31;102359.44;5109924;56;1138768;-71
2022/03/11 20:57:43;;;;;;;28.47;11.60;;;;;;;1.20;43.56;102356.07;5111442;56;1138854;-70
2022/03/11 21:02:49;;;;;;;30.77;12.40;;;;;;;1.18;43.82;102359.56;5110941;56;1138991;-71
2022/03/11 21:07:55;;;;;;;32.10;13.40;;;;;;;1.08;44.21;102360.06;5003235;57;1138835;-70
2022/03/11 21:13:03;;;;;;;40.17;12.40;;;;;;;1.03;44.47;102354.05;5108401;56;1139134;-70
2022/03/11 21:18:09;;;;;;;31.05;11.93;;;;;;;0.95;44.63;102361.05;5113105;56;1139112;-68
2022/03/11 21:23:16;;;;;;;33.60;12.35;;;;;;;0.92;44.63;102361.94;5131391;56;1138997;-69
2022/03/11 21:28:22;;;;;;;31.53;13.90;;;;;;;0.93;44.48;102363.67;5111324;55;1138917;-73
2022/03/11 21:33:28;;;;;;;35.52;13.20;;;;;;;0.92;44.57;102364.55;5098397;56;1139024;-67
2022/03/11 21:38:34;;;;;;;34.47;11.23;;;;;;;0.89;44.54;102368.94;5100322;56;1138807;-71
2022/03/11 21:43:48;;;;;;;55.55;21.45;;;;;;;0.83;44.57;102366.38;5052979;56;1138908;-70
2022/03/11 21:48:49;;;;;;;56.50;22.13;;;;;;;0.83;44.62;102371.58;5098650;55;1138876;-71
2022/03/11 21:53:56;;;;;;;49.03;15.23;;;;;;;0.82;44.50;102372.02;5124805;56;1138886;-67
2022/03/11 21:59:02;;;;;;;34.25;13.60;;;;;;;0.76;44.41;102369.48;5101005;55;1139095;-71
2022/03/11 22:04:07;;;;;;;43.85;15.20;;;;;;;0.73;44.48;102363.42;5127462;55;1138775;-70
2022/03/11 22:09:13;;;;;;;41.15;14.13;;;;;;;0.68;44.48;102360.41;5128034;55;1139012;-71
2022/03/11 22:14:19;;;;;;;41.20;15.05;;;;;;;0.63;44.49;102356.09;5130863;55;1138831;-71
2022/03/11 22:19:25;;;;;;;70.70;22.53;;;;;;;0.59;44.62;102353.98;5134332;55;1139168;-70
2022/03/11 22:24:31;;;;;;;83.67;26.17;;;;;;;0.59;44.58;102354.41;5023303;57;1138999;-68
2022/03/11 22:29:36;;;;;;;47.83;16.93;;;;;;;0.50;44.65;102352.72;5038843;57;1139077;-69
2022/03/11 22:34:43;;;;;;;68.73;22.07;;;;;;;0.47;44.72;102354.03;4998740;56;1138791;-70
2022/03/11 22:39:50;;;;;;;56.20;18.40;;;;;;;0.44;44.80;102359.72;4985376;57;1139309;-69
2022/03/11 22:44:56;;;;;;;50.60;18.10;;;;;;;0.43;44.88;102357.56;5135688;56;1179722;-70
2022/03/11 22:55:25;;;;;;;35.43;14.00;;;;;;;0.34;44.72;102353.25;4878750;58;1138910;-70
2022/03/11 23:00:44;;;;;;;41.17;13.70;;;;;;;0.32;44.85;102352.83;4878018;58;1138895;-70
2022/03/11 23:05:50;;;;;;;43.87;13.23;;;;;;;0.28;44.99;102352.01;4878291;58;1138705;-69
2022/03/11 23:10:57;;;;;;;32.83;13.00;;;;;;;0.25;45.10;102346.81;4878238;58;1138829;-71